createdAt,value
2022-12-22T00:00:00.226Z,57
2022-12-22T00:05:00.246Z,55
2022-12-22T00:10:00.245Z,56
2022-12-22T00:15:00.237Z,56
2022-12-22T00:20:00.396Z,56
2022-12-22T00:25:00.035Z,55
2022-12-22T00:30:00.333Z,56
2022-12-22T00:34:59.991Z,56
2022-12-22T00:40:00.304Z,56
2022-12-22T00:45:00.259Z,55
2022-12-22T00:50:00.204Z,55
2022-12-22T00:55:00.399Z,54
2022-12-22T01:00:00.377Z,54
2022-12-22T01:05:00.206Z,54
2022-12-22T01:10:00.286Z,54
2022-12-22T01:15:00.270Z,54
2022-12-22T01:20:00.369Z,53
2022-12-22T01:25:00.205Z,53
2022-12-22T01:30:00.300Z,53
2022-12-22T01:35:00.269Z,53
2022-12-22T01:40:00.385Z,54
2022-12-22T01:44:59.968Z,54
2022-12-22T01:50:00.500Z,54
2022-12-22T01:55:00.086Z,55
2022-12-22T02:00:00.092Z,55
2022-12-22T02:05:01.057Z,56
2022-12-22T02:10:00.069Z,55
2022-12-22T02:15:02.305Z,55
2022-12-22T02:20:00.024Z,55
2022-12-22T02:24:59.936Z,55
2022-12-22T02:30:00.241Z,56
2022-12-22T02:35:00.149Z,55
2022-12-22T02:40:00.062Z,54
2022-12-22T02:45:00.116Z,55
2022-12-22T02:50:00.222Z,54
2022-12-22T02:55:00.001Z,53
2022-12-22T02:59:59.921Z,53
2022-12-22T03:05:00.290Z,52
2022-12-22T03:09:59.920Z,53
2022-12-22T03:15:00.068Z,52
2022-12-22T03:20:00.269Z,53
2022-12-22T03:24:59.841Z,53
2022-12-22T03:30:00.052Z,52
2022-12-22T03:34:59.913Z,51
2022-12-22T03:40:00.238Z,49
2022-12-22T03:45:00.276Z,49
2022-12-22T03:50:00.175Z,49
2022-12-22T03:54:59.822Z,50
2022-12-22T04:00:00.016Z,51
2022-12-22T04:05:00.386Z,51
2022-12-22T04:10:00.232Z,49
2022-12-22T04:14:59.951Z,50
2022-12-22T04:20:00.194Z,50
2022-12-22T04:24:59.857Z,50
2022-12-22T04:29:59.836Z,49
2022-12-22T04:34:59.833Z,50
2022-12-22T04:40:00.146Z,48
2022-12-22T04:44:59.932Z,47
2022-12-22T04:50:00.088Z,47
2022-12-22T04:54:59.987Z,46
2022-12-22T04:59:59.813Z,46
2022-12-22T05:04:59.946Z,45
2022-12-22T05:09:59.963Z,44
2022-12-22T05:14:59.964Z,43
2022-12-22T05:20:00.227Z,43
2022-12-22T05:24:59.977Z,44
2022-12-22T05:30:00.122Z,42
2022-12-22T05:35:00.453Z,41
2022-12-22T05:39:59.851Z,42
2022-12-22T05:44:59.805Z,41
2022-12-22T05:50:00.002Z,42
2022-12-22T05:54:59.716Z,42
2022-12-22T05:59:59.813Z,45
2022-12-22T06:04:59.758Z,45
2022-12-22T06:09:59.945Z,44
2022-12-22T06:14:59.770Z,44
2022-12-22T06:20:00.153Z,43
2022-12-22T06:25:00.044Z,42
2022-12-22T06:30:00.113Z,42
2022-12-22T06:34:59.843Z,42
2022-12-22T06:39:59.863Z,42
2022-12-22T06:45:00.044Z,41
2022-12-22T06:49:59.882Z,42
2022-12-22T06:54:59.863Z,42
2022-12-22T07:00:00.553Z,40
2022-12-22T07:04:59.993Z,38
2022-12-22T07:09:59.732Z,36
2022-12-22T07:14:59.853Z,34
2022-12-22T07:19:59.857Z,33
2022-12-22T07:24:59.796Z,31
2022-12-22T07:29:59.683Z,30
2022-12-22T07:35:04.973Z,28
2022-12-22T07:39:59.722Z,27
2022-12-22T07:44:59.674Z,27
2022-12-22T07:49:59.913Z,26
2022-12-22T07:54:59.769Z,26
2022-12-22T07:59:59.844Z,26
2022-12-22T08:05:00.323Z,25
2022-12-22T08:10:00.047Z,25
2022-12-22T08:14:59.905Z,25
2022-12-22T08:19:59.665Z,23
2022-12-22T08:24:59.714Z,23
2022-12-22T08:29:59.935Z,23
2022-12-22T08:34:59.693Z,22
2022-12-22T08:39:59.973Z,22
2022-12-22T08:44:59.951Z,22
2022-12-22T08:49:59.818Z,21
2022-12-22T08:54:59.994Z,21
2022-12-22T08:59:59.721Z,22
2022-12-22T09:04:59.926Z,21
2022-12-22T09:10:00.226Z,21
2022-12-22T09:14:59.974Z,20
2022-12-22T09:19:59.887Z,21
2022-12-22T09:24:59.549Z,20
2022-12-22T09:29:59.856Z,20
2022-12-22T09:34:59.675Z,20
2022-12-22T09:39:59.520Z,21
2022-12-22T09:44:59.586Z,20
2022-12-22T09:49:59.806Z,21
2022-12-22T09:54:59.721Z,20
2022-12-22T09:59:59.816Z,21
2022-12-22T10:05:05.290Z,21
2022-12-22T10:09:59.804Z,23
2022-12-22T10:14:59.747Z,23
2022-12-22T10:19:59.881Z,23
2022-12-22T10:25:00.881Z,23
2022-12-22T10:30:22.310Z,24
2022-12-22T10:35:01.735Z,23
2022-12-22T10:39:59.723Z,22
2022-12-22T10:44:59.967Z,23
2022-12-22T10:50:02.030Z,23
2022-12-22T10:54:59.563Z,22
2022-12-22T10:59:59.580Z,22
2022-12-22T11:04:59.579Z,21
2022-12-22T11:09:59.967Z,21
2022-12-22T11:14:59.628Z,22
2022-12-22T11:19:59.559Z,22
2022-12-22T11:25:06.377Z,21
2022-12-22T11:30:03.138Z,21
2022-12-22T11:34:59.548Z,20
2022-12-22T11:39:59.838Z,19
2022-12-22T11:45:06.277Z,19
2022-12-22T11:51:01.953Z,18
2022-12-22T11:54:59.877Z,17
2022-12-22T12:00:02.305Z,16
2022-12-22T12:04:59.690Z,16
2022-12-22T12:10:05.798Z,16
2022-12-22T12:14:59.618Z,16
2022-12-22T12:20:06.023Z,16
2022-12-22T12:24:59.665Z,17
2022-12-22T12:30:28.534Z,21
2022-12-22T12:34:59.594Z,21
2022-12-22T12:39:59.698Z,20
2022-12-22T12:44:59.911Z,20
2022-12-22T12:49:59.536Z,20
2022-12-22T12:54:59.560Z,20
2022-12-22T12:59:59.766Z,21
2022-12-22T13:05:00.606Z,21
2022-12-22T13:09:59.414Z,22
2022-12-22T13:15:00.010Z,23
2022-12-22T13:19:59.491Z,23
2022-12-22T13:25:01.131Z,22
2022-12-22T13:29:59.521Z,22
2022-12-22T13:35:30.403Z,23
2022-12-22T13:39:59.369Z,23
2022-12-22T13:45:00.017Z,23
2022-12-22T13:50:09.046Z,24
2022-12-22T13:54:59.459Z,23
2022-12-22T13:59:59.459Z,23
2022-12-22T14:05:03.275Z,25
2022-12-22T14:09:59.451Z,26
2022-12-22T14:15:00.524Z,28
2022-12-22T14:19:59.590Z,30
2022-12-22T14:25:02.349Z,31
2022-12-22T14:30:02.697Z,32
2022-12-22T14:34:59.605Z,33
2022-12-22T14:39:59.692Z,34
2022-12-22T14:44:59.543Z,35
2022-12-22T14:49:59.386Z,36
2022-12-22T14:54:59.476Z,36
2022-12-22T15:00:00.965Z,37
2022-12-22T15:04:59.347Z,37
2022-12-22T15:10:16.041Z,38
2022-12-22T15:14:59.835Z,38
2022-12-22T15:19:59.666Z,39
2022-12-22T15:24:59.258Z,40
2022-12-22T15:29:59.675Z,41
2022-12-22T15:34:59.532Z,41
2022-12-22T15:39:59.318Z,41
2022-12-22T15:44:59.323Z,42
2022-12-22T15:49:59.492Z,42
2022-12-22T15:54:59.332Z,42
2022-12-22T15:59:59.296Z,43
2022-12-22T16:04:59.264Z,44
2022-12-22T16:09:59.446Z,44
2022-12-22T16:14:59.567Z,44
2022-12-22T16:19:59.366Z,44
2022-12-22T16:24:59.534Z,44
2022-12-22T16:29:59.366Z,45
2022-12-22T16:34:59.427Z,45
2022-12-22T16:39:59.625Z,45
2022-12-22T16:44:59.286Z,45
2022-12-22T16:49:59.498Z,45
2022-12-22T16:54:59.470Z,45
2022-12-22T16:59:59.389Z,45
2022-12-22T17:04:59.560Z,44
2022-12-22T17:09:59.262Z,43
2022-12-22T17:14:59.484Z,43
2022-12-22T17:19:59.436Z,43
2022-12-22T17:25:01.361Z,42
2022-12-22T17:29:59.250Z,42
2022-12-22T17:34:59.490Z,42
2022-12-22T17:39:59.574Z,41
2022-12-22T17:44:59.525Z,40
2022-12-22T17:49:59.360Z,39
2022-12-22T17:54:59.384Z,37
2022-12-22T17:59:59.398Z,37
2022-12-22T18:04:59.785Z,36
2022-12-22T18:09:59.523Z,35
2022-12-22T18:14:59.117Z,34
2022-12-22T18:19:59.271Z,34
2022-12-22T18:24:59.282Z,33
2022-12-22T18:29:59.434Z,33
2022-12-22T18:35:00.547Z,34
2022-12-22T18:40:00.440Z,35
2022-12-22T18:45:00.747Z,35
2022-12-22T18:50:00.537Z,35
2022-12-22T18:55:00.480Z,35
2022-12-22T19:00:00.495Z,35
2022-12-22T19:05:01.364Z,35
2022-12-22T19:10:00.635Z,34
2022-12-22T19:15:00.451Z,34
2022-12-22T19:20:00.515Z,34
2022-12-22T19:25:00.505Z,34
2022-12-22T19:30:03.634Z,35
2022-12-22T19:35:00.536Z,35
2022-12-22T19:40:00.827Z,35
2022-12-22T19:45:04.005Z,36
2022-12-22T19:50:00.405Z,36
2022-12-22T19:55:00.436Z,36
2022-12-22T20:00:00.569Z,37
2022-12-22T20:05:00.398Z,36
2022-12-22T20:10:00.661Z,36
2022-12-22T20:15:00.330Z,36
2022-12-22T20:20:00.556Z,36
2022-12-22T20:25:00.831Z,35
2022-12-22T20:30:00.352Z,35
2022-12-22T20:35:00.439Z,34
2022-12-22T20:40:00.336Z,34
2022-12-22T20:45:03.922Z,33
2022-12-22T20:50:00.549Z,33
2022-12-22T20:55:00.301Z,32
2022-12-22T21:00:00.527Z,31
2022-12-22T21:05:00.393Z,30
2022-12-22T21:10:00.358Z,30
2022-12-22T21:15:00.722Z,30
2022-12-22T21:20:00.553Z,30
2022-12-22T21:25:00.443Z,29
2022-12-22T21:30:00.805Z,29
2022-12-22T21:35:06.025Z,28
2022-12-22T21:40:00.429Z,28
2022-12-22T21:45:00.664Z,27
2022-12-22T21:50:00.457Z,27
2022-12-22T21:55:00.348Z,27
2022-12-22T22:00:00.801Z,26
2022-12-22T22:05:00.365Z,26
2022-12-22T22:10:00.443Z,25
2022-12-22T22:15:00.458Z,25
2022-12-22T22:20:00.382Z,24
2022-12-22T22:25:00.286Z,24
2022-12-22T22:30:00.428Z,24
2022-12-22T22:35:00.289Z,24
2022-12-22T22:40:00.436Z,24
2022-12-22T22:45:00.766Z,24
2022-12-22T22:50:00.917Z,24
2022-12-22T22:55:00.192Z,25
2022-12-22T23:00:00.120Z,25
2022-12-22T23:05:00.413Z,26
2022-12-22T23:10:00.449Z,26
2022-12-22T23:15:00.148Z,27
2022-12-22T23:20:00.164Z,27
2022-12-22T23:25:00.202Z,26
2022-12-22T23:30:00.355Z,26
2022-12-22T23:35:00.155Z,27
2022-12-22T23:40:25.102Z,27
2022-12-22T23:45:00.004Z,27
2022-12-22T23:50:00.174Z,27
2022-12-22T23:55:00.452Z,28
